Terminal Aerodrome Forecast
Issued by NWS

Home | Current Version | Previous Version | Text Only | Print | Product List | Glossary On
Versions: 1 2 3 4 5 6 7 8 9 10 11 12 13 14 15 16
000
FTUS45 KABQ 141100
TAFLVS
TAF
KLVS 141138Z 1412/1512 03005KT P6SM BKN120
     FM141930 17008KT P6SM VCTS SCT070CB SCT120
      TEMPO 1421/1424 5SM -TSRA SCT025 BKN050CB OVC080
     FM150100 06008KT P6SM VCSH BKN050
     FM150400 02012KT P6SM VCSH OVC050
     FM150900 04007KT P6SM BKN025=

USA.gov is the U.S. government's official web portal to all federal, state and local government web resources and services.